createdAt,value
2017-06-03T00:00:47.202Z,81.16
2017-06-03T00:01:47.842Z,81.83
2017-06-03T00:02:48.485Z,81.35
2017-06-03T00:03:49.126Z,81.63
2017-06-03T00:04:49.917Z,81.35
2017-06-03T00:05:50.559Z,81.25
2017-06-03T00:06:51.205Z,80.96
2017-06-03T00:07:51.901Z,82.12
2017-06-03T00:08:52.542Z,81.25
2017-06-03T00:09:53.184Z,81.35
2017-06-03T00:10:53.827Z,81.83
2017-06-03T00:11:54.461Z,80.96
2017-06-03T00:12:55.302Z,81.63
2017-06-03T00:13:55.947Z,80.58
2017-06-03T00:14:56.590Z,80.87
2017-06-03T00:15:57.291Z,81.35
2017-06-03T00:16:57.933Z,80.87
2017-06-03T00:17:58.575Z,80.68
2017-06-03T00:18:59.218Z,80.19
2017-06-03T00:19:59.854Z,81.35
2017-06-03T00:21:00.688Z,80.87
2017-06-03T00:22:01.330Z,80.58
2017-06-03T00:23:01.969Z,80.48
2017-06-03T00:24:02.610Z,80.68
2017-06-03T00:25:03.248Z,80.68
2017-06-03T00:26:03.889Z,81.16
2017-06-03T00:27:04.533Z,81.54
2017-06-03T00:28:05.181Z,82.50
2017-06-03T00:29:06.015Z,81.73
2017-06-03T00:30:06.656Z,80.96
2017-06-03T00:31:07.296Z,81.63
2017-06-03T00:32:07.939Z,80.87
2017-06-03T00:33:08.584Z,81.54
2017-06-03T00:34:09.224Z,81.63
2017-06-03T00:35:09.863Z,81.54
2017-06-03T00:36:10.504Z,81.16
2017-06-03T00:37:11.346Z,81.45
2017-06-03T00:38:11.990Z,80.87
2017-06-03T00:39:12.628Z,80.96
2017-06-03T00:40:13.270Z,80.68
2017-06-03T00:41:13.910Z,80.87
2017-06-03T00:42:14.550Z,80.58
2017-06-03T00:43:15.193Z,81.02
2017-06-03T00:44:15.835Z,81.16
2017-06-03T00:45:16.478Z,80.48
2017-06-03T00:46:17.311Z,80.96
2017-06-03T00:47:17.905Z,81.35
2017-06-03T00:48:18.544Z,80.96
2017-06-03T00:49:19.184Z,81.63
2017-06-03T00:50:19.826Z,81.35
2017-06-03T00:51:20.466Z,81.35
2017-06-03T00:52:21.107Z,80.96
2017-06-03T00:53:21.752Z,81.35
2017-06-03T00:54:22.594Z,81.16
2017-06-03T00:55:23.295Z,81.63
2017-06-03T00:56:24.873Z,81.45
2017-06-03T00:57:25.511Z,81.54
2017-06-03T00:58:26.152Z,81.60
2017-06-03T00:59:26.794Z,81.54
2017-06-03T01:00:27.432Z,81.73
2017-06-03T01:01:28.074Z,81.63
2017-06-03T01:02:28.914Z,81.70
2017-06-03T01:03:29.556Z,81.12
2017-06-03T01:04:30.195Z,80.48
2017-06-03T01:05:30.835Z,80.83
2017-06-03T01:06:31.476Z,81.06
2017-06-03T01:07:32.125Z,80.68
2017-06-03T01:08:32.757Z,81.02
2017-06-03T01:09:33.397Z,80.15
2017-06-03T01:10:34.334Z,80.25
2017-06-03T01:11:34.979Z,81.16
2017-06-03T01:12:35.617Z,81.30
2017-06-03T01:13:36.207Z,80.83
2017-06-03T01:14:36.847Z,80.83
2017-06-03T01:15:37.489Z,82.02
2017-06-03T01:16:38.131Z,80.44
2017-06-03T01:17:38.773Z,80.68
2017-06-03T01:18:39.410Z,81.50
2017-06-03T01:19:40.250Z,81.50
2017-06-03T01:20:40.895Z,81.30
2017-06-03T01:21:41.539Z,80.63
2017-06-03T01:22:42.182Z,80.25
2017-06-03T01:23:42.823Z,81.02
2017-06-03T01:24:43.465Z,80.73
2017-06-03T01:25:44.106Z,80.83
2017-06-03T01:26:44.747Z,80.73
2017-06-03T01:27:45.588Z,81.02
2017-06-03T01:28:46.178Z,80.63
2017-06-03T01:29:46.818Z,80.63
2017-06-03T01:30:47.459Z,80.92
2017-06-03T01:31:48.101Z,81.12
2017-06-03T01:32:48.742Z,81.21
2017-06-03T01:33:49.387Z,81.12
2017-06-03T01:34:50.028Z,80.63
2017-06-03T01:35:50.868Z,81.40
2017-06-03T01:36:51.510Z,81.21
2017-06-03T01:37:52.154Z,80.44
2017-06-03T01:38:52.795Z,81.21
2017-06-03T01:39:53.434Z,81.30
2017-06-03T01:40:54.071Z,81.98
2017-06-03T01:41:54.712Z,80.54
2017-06-03T01:42:55.354Z,80.54
2017-06-03T01:43:56.145Z,80.63
2017-06-03T01:44:56.788Z,81.12
2017-06-03T01:45:57.428Z,81.12
2017-06-03T01:46:58.070Z,81.21
2017-06-03T01:47:58.711Z,80.54
2017-06-03T01:48:59.354Z,79.96
2017-06-03T01:49:59.996Z,80.63
2017-06-03T01:51:00.635Z,81.79
2017-06-03T01:52:01.527Z,80.83
2017-06-03T01:53:02.169Z,80.44
2017-06-03T01:54:02.805Z,81.88
2017-06-03T01:55:03.447Z,80.92
2017-06-03T01:56:04.089Z,81.40
2017-06-03T01:57:04.731Z,80.83
2017-06-03T01:58:05.371Z,81.88
2017-06-03T01:59:06.013Z,81.30
2017-06-03T02:00:06.652Z,80.73
2017-06-03T02:01:07.444Z,81.30
2017-06-03T02:02:08.087Z,81.40
2017-06-03T02:03:08.726Z,80.25
2017-06-03T02:04:09.368Z,81.21
2017-06-03T02:05:10.012Z,80.25
2017-06-03T02:06:10.653Z,80.25
2017-06-03T02:07:11.293Z,80.35
2017-06-03T02:08:11.932Z,81.30
2017-06-03T02:09:12.776Z,81.02
2017-06-03T02:10:13.422Z,80.92
2017-06-03T02:11:14.060Z,80.83
2017-06-03T02:12:14.700Z,81.40
2017-06-03T02:13:15.334Z,81.50
2017-06-03T02:14:15.975Z,80.15
2017-06-03T02:15:16.618Z,80.92
2017-06-03T02:16:17.259Z,80.35
2017-06-03T02:17:18.201Z,80.44
2017-06-03T02:18:18.841Z,80.73
2017-06-03T02:19:19.481Z,79.96
2017-06-03T02:20:20.124Z,80.15
2017-06-03T02:21:20.762Z,79.67
2017-06-03T02:22:21.405Z,79.58
2017-06-03T02:23:22.046Z,79.86
2017-06-03T02:24:22.688Z,79.96
2017-06-03T02:25:23.478Z,81.60
2017-06-03T02:26:24.120Z,81.50
2017-06-03T02:27:24.765Z,81.02
2017-06-03T02:28:25.455Z,80.92
2017-06-03T02:29:26.097Z,80.25
2017-06-03T02:30:26.736Z,80.15
2017-06-03T02:31:27.377Z,80.25
2017-06-03T02:32:28.018Z,81.40
2017-06-03T02:33:28.658Z,80.63
2017-06-03T02:34:29.499Z,79.48
2017-06-03T02:35:30.137Z,80.44
2017-06-03T02:36:30.778Z,81.12
2017-06-03T02:37:31.420Z,80.63
2017-06-03T02:38:32.059Z,81.12
2017-06-03T02:39:32.702Z,81.98
2017-06-03T02:40:33.343Z,81.70
2017-06-03T02:41:33.983Z,81.98
2017-06-03T02:42:34.774Z,81.02
2017-06-03T02:43:35.418Z,80.15
2017-06-03T02:44:36.061Z,81.30
2017-06-03T02:45:36.700Z,80.73
2017-06-03T02:46:37.339Z,80.83
2017-06-03T02:47:37.984Z,81.21
2017-06-03T02:48:38.625Z,80.06
2017-06-03T02:49:39.264Z,80.83
2017-06-03T02:50:40.207Z,80.15
2017-06-03T02:51:40.849Z,80.73
2017-06-03T02:52:41.491Z,80.73
2017-06-03T02:53:42.139Z,80.25
2017-06-03T02:54:42.782Z,81.02
2017-06-03T02:55:43.421Z,79.58
2017-06-03T02:56:44.055Z,79.77
2017-06-03T02:57:44.696Z,81.02
2017-06-03T02:58:45.488Z,80.25
2017-06-03T02:59:46.135Z,80.63
2017-06-03T03:00:46.771Z,81.12
2017-06-03T03:01:47.411Z,79.96
2017-06-03T03:02:48.056Z,81.50
2017-06-03T03:03:48.699Z,82.27
2017-06-03T03:04:49.335Z,82.46
2017-06-03T03:05:49.974Z,80.92
2017-06-03T03:06:50.817Z,80.35
2017-06-03T03:07:51.457Z,80.15
2017-06-03T03:08:52.100Z,81.79
2017-06-03T03:09:52.741Z,80.63
2017-06-03T03:10:53.382Z,81.02
2017-06-03T03:11:54.022Z,81.60
2017-06-03T03:12:54.664Z,80.25
2017-06-03T03:13:55.306Z,79.86
2017-06-03T03:14:55.951Z,80.60
2017-06-03T03:15:56.795Z,80.15
2017-06-03T03:16:57.434Z,82.08
2017-06-03T03:17:58.073Z,81.79
2017-06-03T03:18:58.713Z,80.15
2017-06-03T03:19:59.351Z,82.17
2017-06-03T03:20:59.997Z,80.83
2017-06-03T03:22:00.634Z,80.73
2017-06-03T03:23:01.275Z,81.02
2017-06-03T03:24:02.115Z,81.30
2017-06-03T03:25:02.754Z,81.02
2017-06-03T03:26:03.392Z,80.25
2017-06-03T03:27:04.033Z,80.06
2017-06-03T03:28:04.675Z,79.92
2017-06-03T03:29:05.312Z,81.02
2017-06-03T03:30:05.953Z,81.07
2017-06-03T03:31:06.600Z,80.40
2017-06-03T03:32:07.436Z,82.23
2017-06-03T03:33:08.078Z,82.17
2017-06-03T03:34:08.715Z,81.50
2017-06-03T03:35:09.358Z,81.30
2017-06-03T03:36:09.999Z,80.44
2017-06-03T03:37:10.637Z,81.12
2017-06-03T03:38:11.272Z,81.50
2017-06-03T03:39:11.913Z,80.73
2017-06-03T03:40:12.704Z,79.77
2017-06-03T03:41:13.341Z,79.58
2017-06-03T03:42:13.984Z,79.53
2017-06-03T03:43:14.624Z,81.56
2017-06-03T03:44:15.266Z,80.60
2017-06-03T03:45:15.907Z,81.40
2017-06-03T03:46:16.542Z,81.27
2017-06-03T03:47:17.186Z,81.75
2017-06-03T03:48:17.823Z,81.02
2017-06-03T03:49:18.765Z,80.63
2017-06-03T03:50:19.406Z,81.46
2017-06-03T03:51:20.047Z,81.07
2017-06-03T03:52:20.689Z,81.17
2017-06-03T03:53:21.329Z,80.63
2017-06-03T03:54:21.921Z,81.50
2017-06-03T03:55:22.559Z,81.30
2017-06-03T03:56:23.198Z,80.44
2017-06-03T03:57:23.990Z,81.37
2017-06-03T03:58:24.634Z,81.02
2017-06-03T03:59:25.275Z,81.21
2017-06-03T04:00:25.917Z,82.04
2017-06-03T04:01:26.556Z,80.88
2017-06-03T04:02:27.197Z,82.04
2017-06-03T04:03:27.840Z,81.40
2017-06-03T04:04:28.479Z,80.88
2017-06-03T04:05:29.321Z,80.60
2017-06-03T04:06:29.964Z,81.46
2017-06-03T04:07:30.604Z,81.37
2017-06-03T04:08:31.244Z,82.04
2017-06-03T04:09:31.885Z,81.70
2017-06-03T04:10:32.526Z,81.37
2017-06-03T04:11:33.169Z,82.42
2017-06-03T04:12:33.808Z,80.69
2017-06-03T04:13:34.648Z,80.50
2017-06-03T04:14:35.293Z,81.56
2017-06-03T04:15:35.933Z,81.65
2017-06-03T04:16:36.578Z,80.79
2017-06-03T04:17:37.218Z,81.37
2017-06-03T04:18:37.857Z,81.75
2017-06-03T04:19:38.500Z,81.56
2017-06-03T04:20:39.139Z,81.07
2017-06-03T04:21:39.979Z,81.56
2017-06-03T04:22:40.622Z,82.90
2017-06-03T04:23:41.260Z,80.98
2017-06-03T04:24:41.902Z,81.46
2017-06-03T04:25:42.541Z,80.83
2017-06-03T04:26:43.182Z,80.79
2017-06-03T04:27:43.825Z,81.46
2017-06-03T04:28:44.467Z,81.46
2017-06-03T04:29:45.109Z,81.17
2017-06-03T04:30:45.952Z,81.40
2017-06-03T04:31:46.594Z,81.46
2017-06-03T04:32:47.235Z,81.27
2017-06-03T04:33:47.876Z,80.35
2017-06-03T04:34:48.516Z,80.21
2017-06-03T04:35:49.155Z,81.56
2017-06-03T04:36:49.799Z,81.94
2017-06-03T04:37:50.438Z,80.88
2017-06-03T04:38:51.278Z,81.84
2017-06-03T04:39:51.921Z,81.56
2017-06-03T04:40:52.563Z,81.84
2017-06-03T04:41:53.204Z,80.88
2017-06-03T04:42:53.842Z,82.46
2017-06-03T04:43:54.483Z,81.02
2017-06-03T04:44:55.127Z,81.17
2017-06-03T04:45:55.764Z,80.98
2017-06-03T04:46:56.602Z,81.65
2017-06-03T04:47:57.243Z,81.56
2017-06-03T04:48:57.885Z,80.92
2017-06-03T04:49:58.527Z,80.60
2017-06-03T04:50:59.167Z,81.46
2017-06-03T04:51:59.807Z,80.30
2017-06-03T04:53:00.448Z,81.07
2017-06-03T04:54:01.088Z,81.46
2017-06-03T04:55:01.882Z,80.88
2017-06-03T04:56:02.524Z,82.04
2017-06-03T04:57:03.166Z,80.88
2017-06-03T04:58:03.800Z,81.56
2017-06-03T04:59:04.442Z,80.50
2017-06-03T05:00:05.084Z,81.75
2017-06-03T05:01:05.728Z,81.65
2017-06-03T05:02:06.425Z,79.73
2017-06-03T05:03:07.066Z,80.98
2017-06-03T05:04:07.910Z,79.82
2017-06-03T05:05:08.548Z,80.98
2017-06-03T05:06:09.191Z,81.27
2017-06-03T05:07:09.832Z,82.52
2017-06-03T05:08:10.473Z,79.63
2017-06-03T05:09:11.108Z,79.63
2017-06-03T05:10:11.749Z,79.73
2017-06-03T05:11:12.392Z,80.40
2017-06-03T05:12:13.183Z,79.92
2017-06-03T05:13:13.828Z,80.40
2017-06-03T05:14:14.468Z,80.60
2017-06-03T05:15:15.111Z,80.11
2017-06-03T05:16:15.750Z,80.30
2017-06-03T05:17:16.391Z,80.40
2017-06-03T05:18:17.035Z,81.75
2017-06-03T05:19:17.676Z,80.98
2017-06-03T05:20:18.517Z,80.21
2017-06-03T05:21:19.157Z,82.71
2017-06-03T05:22:19.798Z,81.75
2017-06-03T05:23:20.442Z,81.65
2017-06-03T05:24:21.082Z,80.98
2017-06-03T05:25:21.725Z,82.14
2017-06-03T05:26:22.364Z,81.56
2017-06-03T05:27:22.954Z,80.60
2017-06-03T05:28:23.797Z,79.92
2017-06-03T05:29:24.436Z,80.79
2017-06-03T05:30:25.078Z,81.56
2017-06-03T05:31:25.718Z,79.82
2017-06-03T05:32:26.354Z,80.98
2017-06-03T05:33:26.996Z,79.92
2017-06-03T05:34:27.634Z,80.60
2017-06-03T05:35:28.272Z,81.27
2017-06-03T05:36:29.164Z,80.79
2017-06-03T05:37:29.805Z,81.07
2017-06-03T05:38:30.442Z,81.37
2017-06-03T05:39:31.080Z,79.73
2017-06-03T05:40:31.723Z,79.92
2017-06-03T05:41:32.362Z,80.11
2017-06-03T05:42:33.002Z,79.44
2017-06-03T05:43:33.651Z,79.73
2017-06-03T05:44:34.287Z,80.11
2017-06-03T05:45:35.280Z,81.94
2017-06-03T05:46:35.921Z,81.56
2017-06-03T05:47:36.565Z,83.00
2017-06-03T05:48:37.206Z,80.79
2017-06-03T05:49:37.847Z,81.07
2017-06-03T05:50:38.486Z,80.11
2017-06-03T05:51:39.127Z,79.82
2017-06-03T05:52:39.766Z,79.53
2017-06-03T05:53:40.708Z,80.11
2017-06-03T05:54:41.350Z,79.53
2017-06-03T05:55:41.992Z,81.56
2017-06-03T05:56:42.632Z,81.46
2017-06-03T05:57:43.278Z,80.88
2017-06-03T05:58:43.912Z,82.71
2017-06-03T05:59:44.555Z,80.40
2017-06-03T06:00:45.197Z,80.60
2017-06-03T06:01:45.987Z,79.73
2017-06-03T06:02:46.629Z,80.60
2017-06-03T06:03:47.269Z,80.79
2017-06-03T06:04:47.913Z,79.53
2017-06-03T06:05:48.549Z,79.44
2017-06-03T06:06:49.189Z,80.11
2017-06-03T06:07:49.831Z,81.37
2017-06-03T06:08:50.469Z,81.46
2017-06-03T06:09:51.411Z,80.60
2017-06-03T06:10:52.050Z,82.04
2017-06-03T06:11:52.693Z,80.30
2017-06-03T06:12:53.334Z,80.11
2017-06-03T06:13:53.982Z,80.50
2017-06-03T06:14:54.615Z,82.32
2017-06-03T06:15:55.255Z,81.27
2017-06-03T06:16:55.895Z,81.17
2017-06-03T06:17:56.538Z,81.46
2017-06-03T06:18:57.329Z,80.88
2017-06-03T06:19:57.973Z,79.73
2017-06-03T06:20:58.614Z,78.96
2017-06-03T06:21:59.254Z,81.46
2017-06-03T06:22:59.890Z,79.63
2017-06-03T06:24:00.531Z,79.53
2017-06-03T06:25:01.171Z,80.79
2017-06-03T06:26:01.812Z,80.40
2017-06-03T06:27:02.653Z,80.50
2017-06-03T06:28:03.301Z,80.88
2017-06-03T06:29:03.996Z,81.17
2017-06-03T06:30:04.637Z,80.98
2017-06-03T06:31:05.278Z,81.07
2017-06-03T06:32:05.923Z,79.82
2017-06-03T06:33:06.561Z,80.02
2017-06-03T06:34:07.201Z,80.40
2017-06-03T06:35:07.991Z,79.82
2017-06-03T06:36:08.634Z,79.53
2017-06-03T06:37:09.272Z,80.79
2017-06-03T06:38:09.915Z,81.94
2017-06-03T06:39:10.553Z,81.27
2017-06-03T06:40:11.198Z,79.82
2017-06-03T06:41:11.838Z,81.27
2017-06-03T06:42:12.483Z,81.65
2017-06-03T06:43:13.373Z,80.40
2017-06-03T06:44:14.014Z,80.60
2017-06-03T06:45:14.652Z,79.44
2017-06-03T06:46:15.293Z,78.86
2017-06-03T06:47:15.936Z,78.86
2017-06-03T06:48:16.579Z,79.73
2017-06-03T06:49:17.218Z,79.82
2017-06-03T06:50:17.858Z,79.63
2017-06-03T06:51:18.658Z,80.30
2017-06-03T06:52:19.301Z,80.98
2017-06-03T06:53:19.941Z,81.75
2017-06-03T06:54:20.581Z,83.19
2017-06-03T06:55:21.221Z,82.32
2017-06-03T06:56:21.856Z,81.56
2017-06-03T06:57:22.493Z,81.75
2017-06-03T06:58:23.137Z,81.84
2017-06-03T06:59:23.781Z,81.84
2017-06-03T07:00:24.622Z,80.69
2017-06-03T07:01:25.259Z,79.19
2017-06-03T07:02:25.899Z,78.96
2017-06-03T07:03:26.563Z,80.30
2017-06-03T07:04:27.184Z,80.69
2017-06-03T07:05:27.824Z,78.48
2017-06-03T07:06:28.460Z,81.56
2017-06-03T07:07:29.099Z,79.15
2017-06-03T07:08:30.043Z,80.02
2017-06-03T07:09:30.685Z,80.02
2017-06-03T07:10:31.328Z,81.27
2017-06-03T07:11:31.967Z,80.88
2017-06-03T07:12:32.606Z,80.40
2017-06-03T07:13:33.248Z,79.86
2017-06-03T07:14:33.893Z,80.02
2017-06-03T07:15:34.533Z,81.65
2017-06-03T07:16:35.320Z,78.77
2017-06-03T07:17:35.965Z,80.02
2017-06-03T07:18:36.606Z,80.88
2017-06-03T07:19:37.249Z,79.53
2017-06-03T07:20:37.892Z,80.60
2017-06-03T07:21:38.529Z,81.75
2017-06-03T07:22:39.169Z,79.63
2017-06-03T07:23:39.808Z,80.79
2017-06-03T07:24:40.649Z,79.82
2017-06-03T07:25:41.291Z,81.37
2017-06-03T07:26:41.935Z,80.79
2017-06-03T07:27:42.576Z,80.69
2017-06-03T07:28:43.217Z,80.30
2017-06-03T07:29:43.856Z,78.77
2017-06-03T07:30:44.496Z,79.73
2017-06-03T07:31:45.139Z,80.30
2017-06-03T07:32:45.785Z,79.77
2017-06-03T07:33:46.575Z,80.21
2017-06-03T07:34:47.218Z,79.92
2017-06-03T07:35:47.859Z,80.21
2017-06-03T07:36:48.505Z,78.38
2017-06-03T07:37:49.144Z,80.11
2017-06-03T07:38:49.787Z,81.17
2017-06-03T07:39:50.430Z,79.92
2017-06-03T07:40:51.071Z,79.15
2017-06-03T07:41:51.909Z,80.30
2017-06-03T07:42:52.551Z,80.30
2017-06-03T07:43:53.194Z,79.44
2017-06-03T07:44:53.837Z,80.79
2017-06-03T07:45:54.473Z,80.30
2017-06-03T07:46:55.112Z,79.15
2017-06-03T07:47:56.074Z,80.40
2017-06-03T07:48:56.716Z,80.21
2017-06-03T07:49:57.656Z,78.86
2017-06-03T07:50:58.295Z,81.07
2017-06-03T07:51:58.935Z,79.73
2017-06-03T07:52:59.579Z,81.17
2017-06-03T07:54:00.222Z,79.82
2017-06-03T07:55:00.866Z,81.17
2017-06-03T07:56:01.509Z,80.35
2017-06-03T07:57:02.153Z,79.53
2017-06-03T07:58:02.990Z,80.54
2017-06-03T07:59:04.283Z,80.06
2017-06-03T08:00:04.926Z,78.90
2017-06-03T08:01:05.568Z,79.92
2017-06-03T08:02:06.209Z,78.96
2017-06-03T08:03:06.850Z,79.00
2017-06-03T08:04:07.489Z,78.28
2017-06-03T08:05:08.130Z,78.42
2017-06-03T08:06:08.970Z,78.28
2017-06-03T08:07:09.610Z,78.38
2017-06-03T08:08:10.252Z,78.58
2017-06-03T08:09:10.893Z,79.00
2017-06-03T08:10:11.532Z,79.05
2017-06-03T08:11:12.172Z,77.90
2017-06-03T08:12:12.812Z,80.02
2017-06-03T08:13:13.452Z,79.63
2017-06-03T08:14:14.097Z,78.86
2017-06-03T08:15:15.041Z,78.28
2017-06-03T08:16:15.680Z,78.77
2017-06-03T08:17:16.321Z,77.51
2017-06-03T08:18:16.962Z,77.61
2017-06-03T08:19:17.597Z,78.00
2017-06-03T08:20:18.238Z,78.48
2017-06-03T08:21:18.885Z,79.73
2017-06-03T08:22:19.528Z,78.77
2017-06-03T08:23:20.321Z,78.67
2017-06-03T08:24:20.963Z,78.77
2017-06-03T08:25:21.605Z,80.21
2017-06-03T08:26:22.247Z,78.96
2017-06-03T08:27:22.842Z,79.92
2017-06-03T08:28:23.476Z,78.28
2017-06-03T08:29:24.118Z,78.48
2017-06-03T08:30:24.754Z,78.58
2017-06-03T08:31:25.600Z,79.25
2017-06-03T08:32:26.240Z,79.73
2017-06-03T08:33:26.881Z,77.33
2017-06-03T08:34:27.524Z,80.11
2017-06-03T08:35:28.167Z,79.19
2017-06-03T08:36:28.808Z,79.63
2017-06-03T08:37:29.445Z,78.28
2017-06-03T08:38:30.091Z,79.44
2017-06-03T08:39:30.930Z,78.96
2017-06-03T08:40:31.571Z,78.48
2017-06-03T08:41:32.212Z,80.88
2017-06-03T08:42:32.858Z,78.28
2017-06-03T08:43:33.502Z,79.05
2017-06-03T08:44:34.146Z,78.77
2017-06-03T08:45:34.788Z,77.42
2017-06-03T08:46:35.429Z,78.67
2017-06-03T08:47:36.070Z,79.96
2017-06-03T08:48:36.909Z,78.19
2017-06-03T08:49:37.551Z,78.58
2017-06-03T08:50:38.194Z,79.25
2017-06-03T08:51:38.834Z,77.42
2017-06-03T08:52:39.475Z,78.09
2017-06-03T08:53:40.113Z,77.81
2017-06-03T08:54:40.754Z,79.53
2017-06-03T08:55:41.397Z,78.81
2017-06-03T08:56:42.240Z,78.58
2017-06-03T08:57:42.881Z,80.50
2017-06-03T08:58:43.519Z,78.38
2017-06-03T08:59:44.161Z,79.53
2017-06-03T09:00:44.804Z,76.84
2017-06-03T09:01:45.448Z,78.52
2017-06-03T09:02:46.090Z,78.67
2017-06-03T09:03:46.735Z,78.86
2017-06-03T09:04:47.525Z,79.15
2017-06-03T09:05:48.165Z,80.15
2017-06-03T09:06:48.807Z,81.12
2017-06-03T09:07:49.450Z,78.00
2017-06-03T09:08:50.085Z,77.13
2017-06-03T09:09:50.727Z,77.33
2017-06-03T09:10:51.368Z,77.23
2017-06-03T09:11:52.009Z,77.51
2017-06-03T09:12:52.851Z,76.84
2017-06-03T09:13:53.492Z,78.28
2017-06-03T09:14:54.136Z,78.67
2017-06-03T09:15:54.777Z,78.09
2017-06-03T09:16:55.413Z,77.42
2017-06-03T09:17:56.056Z,77.94
2017-06-03T09:18:56.700Z,76.94
2017-06-03T09:19:57.342Z,77.56
2017-06-03T09:20:58.184Z,78.81
2017-06-03T09:21:58.825Z,76.88
2017-06-03T09:22:59.466Z,77.36
2017-06-03T09:24:00.112Z,76.40
2017-06-03T09:25:00.756Z,78.23
2017-06-03T09:26:01.391Z,76.94
2017-06-03T09:27:02.032Z,77.17
2017-06-03T09:28:02.673Z,75.88
2017-06-03T09:29:03.309Z,77.56
2017-06-03T09:30:04.153Z,76.88
2017-06-03T09:31:04.795Z,76.75
2017-06-03T09:32:05.435Z,76.98
2017-06-03T09:33:06.076Z,76.07
2017-06-03T09:34:06.720Z,76.65
2017-06-03T09:35:07.362Z,76.11
2017-06-03T09:36:08.000Z,76.65
2017-06-03T09:37:08.646Z,79.10
2017-06-03T09:38:09.544Z,79.19
2017-06-03T09:39:10.184Z,76.59
2017-06-03T09:40:10.825Z,76.69
2017-06-03T09:41:11.467Z,76.50
2017-06-03T09:42:12.103Z,77.46
2017-06-03T09:43:12.745Z,77.56
2017-06-03T09:44:13.387Z,76.21
2017-06-03T09:45:14.030Z,78.52
2017-06-03T09:46:14.871Z,77.46
2017-06-03T09:47:15.508Z,80.63
2017-06-03T09:48:16.150Z,77.46
2017-06-03T09:49:16.795Z,75.92
2017-06-03T09:50:17.438Z,78.13
2017-06-03T09:51:18.079Z,78.61
2017-06-03T09:52:18.720Z,79.67
2017-06-03T09:53:19.359Z,76.78
2017-06-03T09:54:20.150Z,74.76
2017-06-03T09:55:20.792Z,77.84
2017-06-03T09:56:21.434Z,76.88
2017-06-03T09:57:22.074Z,78.42
2017-06-03T09:58:22.718Z,78.13
2017-06-03T09:59:23.355Z,75.44
2017-06-03T10:00:23.997Z,74.96
2017-06-03T10:01:24.643Z,75.05
2017-06-03T10:02:25.285Z,76.01
2017-06-03T10:03:26.128Z,76.88
2017-06-03T10:04:26.770Z,75.63
2017-06-03T10:05:27.409Z,75.73
2017-06-03T10:06:28.147Z,74.67
2017-06-03T10:07:28.788Z,74.86
2017-06-03T10:08:29.381Z,75.05
2017-06-03T10:09:30.022Z,76.69
2017-06-03T10:10:30.666Z,76.59
2017-06-03T10:11:31.308Z,77.17
2017-06-03T10:12:31.948Z,75.15
2017-06-03T10:13:32.596Z,76.40
2017-06-03T10:14:33.232Z,77.17
2017-06-03T10:15:34.028Z,77.75
2017-06-03T10:16:34.679Z,75.73
2017-06-03T10:17:35.306Z,74.86
2017-06-03T10:18:35.950Z,75.96
2017-06-03T10:19:36.595Z,76.78
2017-06-03T10:20:37.236Z,74.96
2017-06-03T10:21:37.880Z,74.22
2017-06-03T10:22:38.523Z,74.48
2017-06-03T10:23:39.362Z,74.29
2017-06-03T10:24:40.006Z,74.99
2017-06-03T10:25:40.647Z,75.09
2017-06-03T10:26:41.241Z,76.25
2017-06-03T10:27:41.881Z,75.96
2017-06-03T10:28:42.525Z,77.94
2017-06-03T10:29:43.165Z,75.92
2017-06-03T10:30:43.755Z,77.31
2017-06-03T10:31:44.598Z,78.46
2017-06-03T10:32:45.239Z,78.65
2017-06-03T10:33:45.881Z,78.27
2017-06-03T10:34:46.522Z,75.19
2017-06-03T10:35:47.167Z,73.65
2017-06-03T10:36:47.807Z,73.16
2017-06-03T10:37:48.447Z,74.41
2017-06-03T10:38:49.088Z,74.90
2017-06-03T10:39:49.880Z,73.74
2017-06-03T10:40:50.523Z,72.97
2017-06-03T10:41:51.166Z,71.62
2017-06-03T10:42:51.810Z,76.15
2017-06-03T10:43:52.400Z,74.90
2017-06-03T10:44:53.042Z,74.32
2017-06-03T10:45:53.685Z,74.03
2017-06-03T10:46:54.326Z,72.68
2017-06-03T10:47:54.978Z,73.94
2017-06-03T10:48:55.814Z,78.75
2017-06-03T10:49:56.455Z,78.08
2017-06-03T10:50:57.097Z,76.15
2017-06-03T10:51:57.736Z,74.90
2017-06-03T10:52:58.378Z,74.90
2017-06-03T10:53:59.021Z,76.25
2017-06-03T10:54:59.664Z,74.41
2017-06-03T10:56:00.308Z,73.26
2017-06-03T10:57:01.147Z,73.88
2017-06-03T10:58:01.789Z,74.55
2017-06-03T10:59:02.436Z,75.96
2017-06-03T11:00:03.081Z,74.13
2017-06-03T11:01:03.722Z,76.76
2017-06-03T11:02:04.365Z,73.78
2017-06-03T11:03:05.008Z,72.72
2017-06-03T11:04:05.650Z,72.33
2017-06-03T11:05:06.490Z,73.20
2017-06-03T11:06:07.135Z,72.05
2017-06-03T11:07:07.777Z,74.07
2017-06-03T11:08:08.421Z,72.63
2017-06-03T11:09:09.064Z,70.70
2017-06-03T11:10:09.706Z,71.85
2017-06-03T11:11:10.349Z,72.53
2017-06-03T11:12:10.990Z,70.12
2017-06-03T11:13:11.776Z,70.70
2017-06-03T11:14:12.418Z,70.60
2017-06-03T11:15:13.060Z,72.33
2017-06-03T11:16:13.702Z,74.26
2017-06-03T11:17:14.343Z,73.78
2017-06-03T11:18:14.992Z,73.97
2017-06-03T11:19:15.631Z,72.33
2017-06-03T11:20:16.278Z,71.95
2017-06-03T11:21:17.118Z,71.85
2017-06-03T11:22:17.755Z,71.85
2017-06-03T11:23:18.402Z,70.50
2017-06-03T11:24:19.044Z,70.89
2017-06-03T11:25:19.689Z,72.53
2017-06-03T11:26:20.331Z,72.24
2017-06-03T11:27:20.969Z,72.63
2017-06-03T11:28:21.606Z,70.31
2017-06-03T11:29:22.248Z,69.45
2017-06-03T11:30:23.139Z,68.29
2017-06-03T11:31:23.785Z,68.58
2017-06-03T11:32:24.429Z,67.61
2017-06-03T11:33:25.071Z,69.15
2017-06-03T11:34:25.712Z,68.77
2017-06-03T11:35:26.354Z,69.25
2017-06-03T11:36:26.943Z,68.96
2017-06-03T11:37:27.584Z,70.89
2017-06-03T11:38:28.478Z,70.89
2017-06-03T11:39:29.115Z,70.21
2017-06-03T11:40:29.757Z,70.50
2017-06-03T11:41:30.400Z,70.70
2017-06-03T11:42:31.042Z,70.21
2017-06-03T11:43:31.686Z,71.95
2017-06-03T11:44:32.326Z,68.77
2017-06-03T11:45:32.973Z,69.25
2017-06-03T11:46:33.764Z,69.25
2017-06-03T11:47:34.405Z,68.48
2017-06-03T11:48:35.100Z,69.35
2017-06-03T11:49:35.741Z,69.64
2017-06-03T11:50:36.385Z,69.73
2017-06-03T11:51:37.024Z,69.83
2017-06-03T11:52:37.661Z,68.19
2017-06-03T11:53:38.300Z,69.96
2017-06-03T11:54:39.294Z,69.93
2017-06-03T11:55:39.937Z,72.08
2017-06-03T11:56:40.572Z,72.66
2017-06-03T11:57:41.215Z,71.89
2017-06-03T11:58:41.858Z,70.12
2017-06-03T11:59:42.504Z,67.33
2017-06-03T12:00:43.139Z,66.75
2017-06-03T12:01:43.780Z,66.07
2017-06-03T12:02:44.425Z,65.69
2017-06-03T12:03:45.215Z,65.88
2017-06-03T12:04:45.857Z,66.46
2017-06-03T12:05:46.498Z,65.40
2017-06-03T12:06:47.141Z,65.78
2017-06-03T12:07:47.784Z,66.59
2017-06-03T12:08:48.426Z,65.53
2017-06-03T12:09:49.069Z,66.30
2017-06-03T12:10:49.712Z,65.91
2017-06-03T12:11:50.556Z,66.49
2017-06-03T12:12:51.198Z,66.11
2017-06-03T12:13:51.840Z,66.59
2017-06-03T12:14:52.481Z,67.07
2017-06-03T12:15:53.127Z,65.14
2017-06-03T12:16:53.770Z,65.72
2017-06-03T12:17:54.413Z,64.56
2017-06-03T12:18:55.056Z,64.28
2017-06-03T12:19:55.899Z,65.14
2017-06-03T12:20:56.542Z,64.95
2017-06-03T12:21:57.184Z,64.95
2017-06-03T12:22:57.827Z,64.37
2017-06-03T12:23:58.470Z,65.24
2017-06-03T12:24:59.119Z,66.97
2017-06-03T12:25:59.705Z,67.26
2017-06-03T12:27:00.347Z,66.39
2017-06-03T12:28:01.191Z,66.20
2017-06-03T12:29:01.831Z,64.66
2017-06-03T12:30:02.472Z,64.76
2017-06-03T12:31:03.112Z,65.05
2017-06-03T12:32:03.749Z,63.60
2017-06-03T12:33:04.393Z,63.12
2017-06-03T12:34:05.038Z,63.79
2017-06-03T12:35:05.681Z,63.89
2017-06-03T12:36:06.523Z,63.70
2017-06-03T12:37:07.169Z,64.18
2017-06-03T12:38:07.818Z,63.79
2017-06-03T12:39:08.513Z,64.18
2017-06-03T12:40:09.155Z,63.89
2017-06-03T12:41:09.842Z,63.98
2017-06-03T12:42:10.484Z,63.79
2017-06-03T12:43:11.123Z,64.18
2017-06-03T12:44:11.768Z,64.28
2017-06-03T12:45:12.607Z,63.98
2017-06-03T12:46:13.251Z,63.60
2017-06-03T12:47:13.894Z,65.24
2017-06-03T12:48:14.534Z,66.20
2017-06-03T12:49:15.178Z,64.95
2017-06-03T12:50:15.822Z,64.95
2017-06-03T12:51:16.464Z,66.30
2017-06-03T12:52:17.106Z,66.30
2017-06-03T12:53:17.947Z,65.72
2017-06-03T12:54:18.589Z,65.56
2017-06-03T12:55:19.233Z,65.37
2017-06-03T12:56:19.889Z,65.05
2017-06-03T12:57:20.515Z,66.82
2017-06-03T12:58:21.180Z,67.30
2017-06-03T12:59:21.800Z,67.78
2017-06-03T13:00:22.445Z,66.82
2017-06-03T13:01:23.229Z,67.49